Time;durP1;ratioP1;P1;durP2;ratioP2;P2;SDS_P1;SDS_P2;PMS_P1;PMS_P2;Temp;Humidity;BMP_temperature;BMP_pressure;BME280_temperature;BME280_humidity;BME280_pressure;Samples;Min_cycle;Max_cycle;Signal;HPM_P1;HPM_P2
2022/07/16 00:02:59;;;;;;;3.08;2.65;;;;;;;15.99;70.32;101337.63;5088879;28;20108;-83
2022/07/16 00:05:25;;;;;;;3.70;2.80;;;;;;;16.01;70.38;101340.13;5087078;28;20488;-82
2022/07/16 00:07:51;;;;;;;6.15;3.50;;;;;;;16.02;70.69;101344.47;5072133;28;20663;-83
2022/07/16 00:10:17;;;;;;;5.28;3.33;;;;;;;15.99;70.73;101342.94;5051771;28;20484;-83
2022/07/16 00:12:43;;;;;;;3.70;3.13;;;;;;;15.97;70.86;101336.94;5066431;28;20371;-83
2022/07/16 00:15:09;;;;;;;3.40;3.10;;;;;;;15.94;71.22;101339.88;5091319;28;20020;-83
2022/07/16 00:17:35;;;;;;;3.13;2.53;;;;;;;15.85;71.00;101336.34;5072711;28;20093;-83
2022/07/16 00:20:01;;;;;;;3.22;2.88;;;;;;;15.76;71.22;101339.97;5094515;28;20024;-83
2022/07/16 00:22:27;;;;;;;6.10;2.95;;;;;;;15.67;71.14;101339.03;5092257;28;20102;-82
2022/07/16 00:24:53;;;;;;;5.50;3.20;;;;;;;15.61;71.27;101334.34;5094033;28;20028;-83
2022/07/16 00:27:19;;;;;;;2.92;2.63;;;;;;;15.62;71.35;101330.72;5092814;28;20035;-83
2022/07/16 00:29:45;;;;;;;3.05;2.60;;;;;;;15.65;71.33;101342.88;5075246;28;20036;-83
2022/07/16 00:32:11;;;;;;;4.80;2.72;;;;;;;15.65;71.19;101348.19;5075740;28;20044;-83
2022/07/16 00:34:36;;;;;;;4.32;3.05;;;;;;;15.69;71.65;101349.56;5094014;28;20492;-82
2022/07/16 00:37:02;;;;;;;5.18;3.60;;;;;;;15.71;71.27;101345.75;5092935;28;20032;-82
2022/07/16 00:39:28;;;;;;;6.28;4.40;;;;;;;15.68;71.77;101342.56;5091231;28;20024;-82
2022/07/16 00:41:54;;;;;;;7.22;2.97;;;;;;;15.59;72.12;101344.34;5093226;28;20039;-82
2022/07/16 00:44:21;;;;;;;7.53;3.30;;;;;;;15.53;72.47;101342.31;5093603;28;20046;-82
2022/07/16 00:46:48;;;;;;;3.42;3.13;;;;;;;15.52;72.67;101338.78;5092820;28;20111;-83
2022/07/16 00:49:15;;;;;;;5.78;3.38;;;;;;;15.50;72.86;101332.78;5092437;28;20081;-83
2022/07/16 00:51:44;;;;;;;4.88;3.90;;;;;;;15.49;73.05;101337.28;5092052;28;20051;-82
2022/07/16 00:54:10;;;;;;;6.07;3.45;;;;;;;15.48;73.29;101338.25;5092575;28;20031;-77
2022/07/16 00:56:35;;;;;;;5.68;3.00;;;;;;;15.45;73.40;101330.56;5104466;28;20573;-77
2022/07/16 00:59:01;;;;;;;6.40;3.15;;;;;;;15.48;73.35;101335.59;5026879;28;20553;-83
2022/07/16 01:01:27;;;;;;;4.75;3.08;;;;;;;15.41;73.35;101333.69;5092282;28;20028;-82
2022/07/16 01:03:53;;;;;;;4.50;3.20;;;;;;;15.40;73.23;101332.84;5090666;28;20092;-83
2022/07/16 01:06:22;;;;;;;5.53;3.90;;;;;;;15.35;73.41;101329.84;5074253;28;20039;-83
2022/07/16 01:08:49;;;;;;;5.22;3.70;;;;;;;15.26;73.49;101334.25;5075517;28;20039;-83
2022/07/16 01:11:17;;;;;;;4.50;2.83;;;;;;;15.16;73.50;101341.50;5074569;28;20036;-83
2022/07/16 01:13:45;;;;;;;3.30;2.50;;;;;;;15.06;73.59;101337.09;5092622;28;20032;-83
2022/07/16 01:16:12;;;;;;;4.43;3.20;;;;;;;15.06;73.63;101341.56;5074823;28;20366;-83
2022/07/16 01:18:41;;;;;;;3.53;2.88;;;;;;;15.02;73.61;101329.56;5090280;28;20036;-82
2022/07/16 01:21:07;;;;;;;4.22;3.55;;;;;;;15.03;73.74;101339.22;5094421;28;20032;-83
2022/07/16 01:23:33;;;;;;;3.85;2.92;;;;;;;14.99;73.61;101338.66;5057751;28;20388;-82
2022/07/16 01:25:59;;;;;;;4.35;3.20;;;;;;;14.88;74.02;101334.41;5075030;28;20487;-83
2022/07/16 01:28:25;;;;;;;2.78;2.47;;;;;;;14.82;73.84;101335.00;5089718;28;20047;-82
2022/07/16 01:30:51;;;;;;;4.57;2.53;;;;;;;14.82;73.86;101338.50;5075933;28;20482;-83
2022/07/16 01:33:20;;;;;;;4.00;3.03;;;;;;;14.82;73.67;101327.88;5093921;28;20174;-83
2022/07/16 01:35:46;;;;;;;5.72;2.80;;;;;;;14.82;73.73;101330.53;5070852;28;20370;-82
2022/07/16 01:38:12;;;;;;;4.03;2.80;;;;;;;14.87;73.58;101335.41;5075943;28;20093;-83
2022/07/16 01:40:38;;;;;;;5.10;3.47;;;;;;;14.86;73.28;101323.91;5089839;28;20032;-82
2022/07/16 01:43:03;;;;;;;4.40;3.35;;;;;;;14.87;73.43;101320.25;5074615;28;20126;-82
2022/07/16 01:45:29;;;;;;;6.45;3.47;;;;;;;14.82;73.34;101329.69;5058814;28;20027;-82
2022/07/16 01:47:55;;;;;;;4.45;3.75;;;;;;;14.76;73.67;101329.25;5084578;28;20039;-82
2022/07/16 01:50:21;;;;;;;4.15;3.70;;;;;;;14.72;73.77;101324.38;5072220;28;20373;-82
2022/07/16 01:52:47;;;;;;;7.88;3.28;;;;;;;14.72;73.60;101335.03;5087008;28;20396;-83
2022/07/16 01:55:12;;;;;;;4.15;3.33;;;;;;;14.68;73.78;101331.84;5069241;28;20048;-82
2022/07/16 01:57:38;;;;;;;6.40;3.05;;;;;;;14.67;73.88;101337.31;5083703;28;20036;-82
2022/07/16 02:00:05;;;;;;;3.33;3.03;;;;;;;14.66;74.00;101336.47;5104900;28;20055;-83
2022/07/16 02:02:37;;;;;;;5.38;3.65;;;;;;;14.60;73.91;101335.25;5088128;28;20043;-82
2022/07/16 02:05:04;;;;;;;3.35;3.05;;;;;;;14.56;74.09;101327.69;5090070;28;20502;-83
2022/07/16 02:07:30;;;;;;;8.48;3.65;;;;;;;14.47;74.15;101324.97;5087400;28;20059;-84
2022/07/16 02:09:55;;;;;;;7.00;3.60;;;;;;;14.37;74.29;101325.00;5087120;28;20518;-83
2022/07/16 02:12:21;;;;;;;6.30;3.47;;;;;;;14.31;74.60;101324.75;5053464;28;20081;-82
2022/07/16 02:14:47;;;;;;;4.18;3.55;;;;;;;14.30;74.61;101325.75;5085558;28;20063;-83
2022/07/16 02:17:13;;;;;;;4.30;2.97;;;;;;;14.28;74.23;101317.91;5089145;28;20035;-83
2022/07/16 02:19:39;;;;;;;3.33;2.83;;;;;;;14.28;74.25;101315.25;5088617;28;20035;-83
2022/07/16 02:22:06;;;;;;;7.93;3.80;;;;;;;14.26;74.28;101315.41;5063865;28;20089;-83
2022/07/16 02:24:32;;;;;;;4.65;3.03;;;;;;;14.11;74.15;101306.25;5086917;28;20111;-83
2022/07/16 02:26:58;;;;;;;5.00;3.28;;;;;;;14.06;74.88;101305.84;5087883;28;20506;-83
2022/07/16 02:29:24;;;;;;;5.15;3.05;;;;;;;14.02;74.79;101307.94;5090736;28;20114;-82
2022/07/16 02:31:50;;;;;;;6.35;3.30;;;;;;;13.99;74.80;101314.41;5090383;28;20373;-83
2022/07/16 02:34:16;;;;;;;10.02;3.30;;;;;;;13.99;74.86;101303.78;5088055;28;20031;-83
2022/07/16 02:36:42;;;;;;;6.47;2.90;;;;;;;14.01;74.93;101301.78;5088650;28;20071;-83
2022/07/16 02:39:07;;;;;;;5.38;3.00;;;;;;;14.00;74.80;101300.13;5070613;28;20118;-83
2022/07/16 02:41:33;;;;;;;3.72;2.83;;;;;;;14.03;74.95;101309.59;5084407;28;20028;-83
2022/07/16 02:43:59;;;;;;;5.40;2.83;;;;;;;14.01;74.73;101309.75;5071339;28;20028;-83
2022/07/16 02:46:25;;;;;;;3.30;2.30;;;;;;;13.99;74.76;101318.88;5093488;28;20546;-82
2022/07/16 02:48:51;;;;;;;7.10;2.83;;;;;;;14.02;74.66;101314.09;5086948;28;20110;-83
2022/07/16 02:51:17;;;;;;;4.38;2.78;;;;;;;14.04;74.38;101311.31;5088439;28;20392;-83
2022/07/16 02:53:43;;;;;;;3.88;2.95;;;;;;;14.04;74.43;101303.34;5086699;28;20039;-77
2022/07/16 02:56:08;;;;;;;4.75;2.92;;;;;;;14.01;74.08;101299.13;5079626;28;20028;-77
2022/07/16 02:58:34;;;;;;;3.65;3.17;;;;;;;13.96;74.17;101314.69;5089244;28;20063;-77
2022/07/16 03:01:00;;;;;;;7.38;3.25;;;;;;;13.99;74.38;101318.88;5087207;28;20032;-77
2022/07/16 03:03:26;;;;;;;8.55;3.03;;;;;;;13.98;73.94;101311.88;5088132;28;20077;-77
2022/07/16 03:05:52;;;;;;;5.60;2.55;;;;;;;13.89;73.86;101309.13;5082871;28;20111;-77
2022/07/16 03:08:18;;;;;;;7.97;2.50;;;;;;;13.83;74.39;101311.50;5103977;27;20492;-82
2022/07/16 03:10:44;;;;;;;2.97;2.63;;;;;;;13.76;74.25;101313.94;5068249;28;20111;-83
2022/07/16 03:13:10;;;;;;;9.90;3.13;;;;;;;13.75;74.84;101302.44;5067394;28;20039;-83
2022/07/16 03:15:36;;;;;;;5.20;3.03;;;;;;;13.82;74.43;101315.16;5084243;28;20028;-82
2022/07/16 03:18:02;;;;;;;6.28;2.50;;;;;;;13.82;74.13;101316.00;5088296;28;20028;-82
2022/07/16 03:20:28;;;;;;;5.30;2.65;;;;;;;13.80;74.31;101309.97;5089522;28;20036;-83
2022/07/16 03:22:54;;;;;;;9.93;3.60;;;;;;;13.74;73.91;101318.53;5087261;28;20402;-83
2022/07/16 03:25:20;;;;;;;8.45;2.60;;;;;;;13.70;73.95;101319.78;5087065;28;20455;-83
2022/07/16 03:27:46;;;;;;;2.20;1.80;;;;;;;13.70;74.04;101319.78;5085839;28;20579;-83
2022/07/16 03:30:13;;;;;;;4.03;2.22;;;;;;;13.66;73.85;101313.94;5086409;28;20035;-83
2022/07/16 03:32:40;;;;;;;4.15;2.15;;;;;;;13.66;73.76;101316.59;5069443;28;20591;-83
2022/07/16 03:35:08;;;;;;;3.75;2.70;;;;;;;13.67;73.48;101318.25;5080192;28;20068;-83
2022/07/16 03:37:34;;;;;;;5.40;2.63;;;;;;;13.67;73.09;101317.41;5089619;28;20028;-82
2022/07/16 03:40:00;;;;;;;3.88;2.92;;;;;;;13.67;73.08;101312.94;5087782;28;20506;-83
2022/07/16 03:42:25;;;;;;;4.32;1.88;;;;;;;13.66;72.83;101310.44;5084738;28;20029;-82
2022/07/16 03:44:51;;;;;;;4.47;2.60;;;;;;;13.63;72.81;101308.91;5067793;28;20062;-82
2022/07/16 03:47:17;;;;;;;4.47;3.35;;;;;;;13.60;72.95;101312.69;5087977;28;20133;-83
2022/07/16 03:49:43;;;;;;;4.65;2.65;;;;;;;13.61;73.10;101308.22;5072024;28;20032;-76
2022/07/16 03:52:08;;;;;;;5.30;2.80;;;;;;;13.58;73.33;101303.19;5081876;28;20105;-76
2022/07/16 03:54:34;;;;;;;13.07;4.70;;;;;;;13.46;73.24;101302.47;5085643;28;20054;-82
2022/07/16 03:57:00;;;;;;;9.93;3.38;;;;;;;13.33;73.49;101297.47;5025225;28;20024;-82
2022/07/16 03:59:26;;;;;;;5.60;2.75;;;;;;;13.25;73.77;101301.66;5069043;28;20029;-77
2022/07/16 04:01:52;;;;;;;4.20;2.80;;;;;;;13.19;73.83;101298.72;5083678;28;20396;-77
2022/07/16 04:04:17;;;;;;;6.93;3.00;;;;;;;13.12;73.91;101295.81;5086749;28;20035;-82
2022/07/16 04:06:43;;;;;;;9.98;2.83;;;;;;;13.07;74.37;101300.69;5086861;28;20433;-82
2022/07/16 04:09:09;;;;;;;8.20;3.42;;;;;;;13.04;74.13;101299.16;5088162;28;20068;-76
2022/07/16 04:11:35;;;;;;;25.88;4.95;;;;;;;12.98;74.17;101305.03;5068672;28;20032;-76
2022/07/16 04:14:01;;;;;;;37.28;5.30;;;;;;;12.89;74.62;101304.88;5090836;28;20380;-82
2022/07/16 04:16:26;;;;;;;86.32;5.60;;;;;;;12.82;74.95;101314.34;5084273;28;20029;-82
2022/07/16 04:18:52;;;;;;;31.73;6.13;;;;;;;12.75;75.08;101311.44;5087143;28;20417;-82
2022/07/16 04:21:18;;;;;;;9.50;5.57;;;;;;;12.71;75.50;101310.00;5069400;28;20531;-82
2022/07/16 04:23:44;;;;;;;19.80;5.75;;;;;;;12.62;75.74;101305.53;5090865;28;20036;-82
2022/07/16 04:26:10;;;;;;;7.65;5.70;;;;;;;12.63;76.19;101315.16;5087839;28;20384;-82
2022/07/16 04:28:35;;;;;;;6.07;4.75;;;;;;;12.63;76.02;101309.84;5088776;28;20143;-76
2022/07/16 04:31:01;;;;;;;4.90;4.15;;;;;;;12.65;75.96;101305.25;5089352;28;20473;-76
2022/07/16 04:33:27;;;;;;;6.28;4.70;;;;;;;12.70;75.84;101310.13;5090408;28;20083;-76
2022/07/16 04:35:53;;;;;;;5.25;4.13;;;;;;;12.70;75.60;101303.03;5073547;28;20047;-76
2022/07/16 04:38:19;;;;;;;6.18;3.97;;;;;;;12.65;75.79;101311.41;5088649;28;20039;-82
2022/07/16 04:40:45;;;;;;;18.80;3.67;;;;;;;12.64;75.52;101308.88;5088553;28;20452;-83
2022/07/16 04:43:11;;;;;;;10.57;5.53;;;;;;;12.63;75.95;101301.88;5085860;28;20107;-83
2022/07/16 04:45:37;;;;;;;7.18;3.92;;;;;;;12.63;76.00;101292.13;5072748;28;20040;-77
2022/07/16 04:48:03;;;;;;;36.20;4.65;;;;;;;12.67;75.61;101300.66;5107449;28;20039;-76
2022/07/16 04:50:29;;;;;;;5.70;4.55;;;;;;;12.69;75.50;101296.06;5073439;28;20085;-76
2022/07/16 04:52:55;;;;;;;9.38;4.75;;;;;;;12.75;75.72;101292.00;5069839;28;20036;-76
2022/07/16 04:55:21;;;;;;;7.95;5.00;;;;;;;12.79;75.58;101293.41;5089915;28;20036;-82
2022/07/16 04:57:47;;;;;;;10.32;6.40;;;;;;;12.83;75.70;101292.16;5085191;28;20070;-82
2022/07/16 05:00:13;;;;;;;9.00;5.10;;;;;;;12.82;75.78;101287.00;5084891;28;20055;-82
2022/07/16 05:02:57;;;;;;;16.42;9.77;;;;;;;12.88;75.78;101286.44;5073516;28;20073;-82
2022/07/16 05:05:41;;;;;;;17.17;9.63;;;;;;;12.96;75.07;101293.69;5088230;28;20064;-77
2022/07/16 05:08:08;;;;;;;14.38;8.70;;;;;;;12.94;75.63;101293.00;5090015;28;20496;-76
2022/07/16 05:10:35;;;;;;;13.65;9.52;;;;;;;12.95;75.43;101295.50;5072285;28;20029;-84
2022/07/16 05:13:02;;;;;;;69.30;11.32;;;;;;;12.92;75.97;101300.25;5087504;28;20114;-82
2022/07/16 05:15:29;;;;;;;16.23;10.02;;;;;;;12.84;76.04;101298.28;5072096;28;20032;-77
2022/07/16 05:17:55;;;;;;;18.92;10.23;;;;;;;12.77;76.66;101296.19;5086490;28;20109;-76
2022/07/16 05:20:21;;;;;;;15.88;10.25;;;;;;;12.79;76.60;101293.41;5083155;28;20038;-82
2022/07/16 05:22:47;;;;;;;14.18;10.18;;;;;;;12.86;76.65;101293.69;5086781;28;20108;-82
2022/07/16 05:25:15;;;;;;;16.23;9.73;;;;;;;12.87;76.64;101290.06;5090096;28;20058;-77
2022/07/16 05:27:41;;;;;;;11.95;8.93;;;;;;;12.86;76.53;101293.69;5091895;28;20036;-76
2022/07/16 05:30:09;;;;;;;13.75;9.40;;;;;;;12.88;76.96;101291.75;5074603;28;20028;-77
2022/07/16 05:32:36;;;;;;;12.32;8.68;;;;;;;12.87;76.99;101290.06;5089715;28;20048;-76
2022/07/16 05:35:03;;;;;;;43.63;9.35;;;;;;;12.92;77.36;101297.59;5092625;28;20036;-76
2022/07/16 05:37:29;;;;;;;63.83;11.10;;;;;;;12.95;77.04;101297.34;5051443;28;20123;-76
2022/07/16 05:39:55;;;;;;;34.53;9.32;;;;;;;12.96;77.02;101293.69;5091395;28;20032;-76
2022/07/16 05:42:20;;;;;;;31.38;7.82;;;;;;;12.99;77.25;101294.28;5088925;28;20043;-77
2022/07/16 05:44:46;;;;;;;30.92;7.40;;;;;;;13.02;77.10;101286.03;5088612;28;20027;-82
2022/07/16 05:47:12;;;;;;;20.60;7.63;;;;;;;13.08;77.04;101283.78;5075405;28;20024;-82
2022/07/16 05:49:38;;;;;;;23.17;6.70;;;;;;;13.12;77.08;101291.31;5090082;28;20119;-83
2022/07/16 05:52:04;;;;;;;9.95;6.70;;;;;;;13.16;77.04;101294.53;5088570;28;20036;-82
2022/07/16 05:54:30;;;;;;;9.90;6.57;;;;;;;13.17;77.16;101290.88;5075891;28;20127;-82
2022/07/16 05:56:56;;;;;;;8.27;5.80;;;;;;;13.15;77.24;101291.03;5089942;28;20028;-83
2022/07/16 05:59:22;;;;;;;16.13;6.40;;;;;;;13.13;77.50;101300.13;5072524;28;20480;-83
2022/07/16 06:01:48;;;;;;;16.83;7.72;;;;;;;13.09;77.72;101296.09;5080295;28;20042;-82
2022/07/16 06:04:14;;;;;;;55.10;8.32;;;;;;;12.99;77.99;101294.28;5089076;28;20039;-83
2022/07/16 06:06:39;;;;;;;17.67;8.27;;;;;;;12.92;78.74;101298.44;5083760;28;20028;-83
2022/07/16 06:09:05;;;;;;;21.55;7.55;;;;;;;12.87;78.98;101298.00;5089090;28;20032;-82
2022/07/16 06:11:31;;;;;;;14.05;8.48;;;;;;;12.87;79.62;101301.50;5070465;28;20128;-82
2022/07/16 06:13:57;;;;;;;23.70;8.10;;;;;;;12.91;79.72;101302.09;5072902;28;20110;-82
2022/07/16 06:16:23;;;;;;;32.05;8.10;;;;;;;12.92;80.01;101303.75;5092134;28;20484;-83
2022/07/16 06:18:49;;;;;;;11.48;7.63;;;;;;;12.93;80.35;101294.84;5080598;28;20123;-83
2022/07/16 06:21:15;;;;;;;9.15;7.00;;;;;;;12.99;80.46;101296.94;5089528;28;20035;-83
2022/07/16 06:23:41;;;;;;;11.65;6.10;;;;;;;13.08;80.41;101291.72;5071808;28;20085;-82
2022/07/16 06:26:07;;;;;;;5.43;4.93;;;;;;;13.17;80.72;101303.34;5099432;28;20024;-82
2022/07/16 06:28:32;;;;;;;11.75;6.22;;;;;;;13.28;80.84;101303.22;5091462;28;20443;-82
2022/07/16 06:30:58;;;;;;;5.88;4.55;;;;;;;13.42;80.69;101307.25;5065915;28;20037;-82
2022/07/16 06:33:24;;;;;;;5.72;5.03;;;;;;;13.52;80.63;101310.72;5106157;27;20525;-77
2022/07/16 06:35:50;;;;;;;5.57;3.75;;;;;;;13.64;80.53;101310.59;5094308;28;20032;-76
2022/07/16 06:38:16;;;;;;;7.80;4.30;;;;;;;13.74;80.29;101308.72;5092145;28;20089;-82
2022/07/16 06:40:45;;;;;;;5.50;3.83;;;;;;;13.88;80.12;101309.25;5081288;28;20439;-82
2022/07/16 06:43:11;;;;;;;3.97;3.58;;;;;;;14.00;79.98;101307.25;5086441;28;20538;-82
2022/07/16 06:45:42;;;;;;;7.15;5.30;;;;;;;14.12;79.94;101307.91;5074776;28;20032;-83
2022/07/16 06:48:08;;;;;;;6.90;6.20;;;;;;;14.20;80.00;101308.03;5070308;28;20447;-82
2022/07/16 06:50:34;;;;;;;5.75;5.03;;;;;;;14.29;80.08;101316.09;5080730;28;20060;-82
2022/07/16 06:53:00;;;;;;;7.07;5.03;;;;;;;14.36;80.10;101317.19;5064772;28;20540;-82
2022/07/16 06:55:26;;;;;;;6.18;5.38;;;;;;;14.43;80.30;101312.13;5082215;28;20028;-82
2022/07/16 06:57:51;;;;;;;9.73;4.65;;;;;;;14.51;80.56;101317.50;5107849;28;20139;-83
2022/07/16 07:00:17;;;;;;;5.72;3.97;;;;;;;14.58;80.42;101315.09;5092687;28;20372;-76
2022/07/16 07:02:43;;;;;;;4.63;3.88;;;;;;;14.62;80.69;101311.97;5089429;28;20064;-76
2022/07/16 07:05:09;;;;;;;3.88;3.58;;;;;;;14.71;80.92;101318.25;5088671;28;20028;-82
2022/07/16 07:07:35;;;;;;;4.63;3.45;;;;;;;14.79;80.99;101330.84;5089444;28;20024;-82
2022/07/16 07:10:00;;;;;;;5.28;3.40;;;;;;;14.88;81.07;101319.28;5087142;28;20071;-82
2022/07/16 07:12:26;;;;;;;5.57;3.30;;;;;;;14.96;81.77;101325.66;5072360;28;20484;-82
2022/07/16 07:14:52;;;;;;;3.47;3.17;;;;;;;15.11;81.21;101316.13;5084619;28;20101;-82
2022/07/16 07:17:18;;;;;;;4.78;4.00;;;;;;;15.27;81.17;101319.97;5080757;28;20105;-82
2022/07/16 07:19:43;;;;;;;4.20;3.78;;;;;;;15.54;81.37;101319.97;5071775;28;20044;-76
2022/07/16 07:22:09;;;;;;;7.07;4.28;;;;;;;15.85;81.13;101322.16;5075022;28;20380;-76
2022/07/16 07:24:35;;;;;;;5.03;3.80;;;;;;;16.15;81.15;101328.03;5082924;28;20040;-77
2022/07/16 07:27:01;;;;;;;4.78;3.78;;;;;;;16.49;80.61;101329.84;5063935;28;20028;-76
2022/07/16 07:29:27;;;;;;;4.70;4.20;;;;;;;16.81;80.14;101321.22;5088235;28;20111;-82
2022/07/16 07:31:52;;;;;;;6.53;3.50;;;;;;;17.16;79.28;101327.31;5090626;28;20043;-83
2022/07/16 07:34:18;;;;;;;4.93;3.33;;;;;;;17.47;78.21;101331.16;5083642;28;20055;-77
2022/07/16 07:36:44;;;;;;;4.28;3.70;;;;;;;17.68;77.40;101325.28;5085431;28;20036;-76
2022/07/16 07:39:10;;;;;;;5.82;3.80;;;;;;;17.84;76.63;101320.88;5087156;28;20020;-82
2022/07/16 07:41:37;;;;;;;3.65;3.28;;;;;;;17.96;76.04;101318.69;5071854;28;20036;-82
2022/07/16 07:44:03;;;;;;;6.07;3.35;;;;;;;18.10;75.80;101319.81;5079000;28;20081;-82
2022/07/16 07:46:29;;;;;;;5.55;3.42;;;;;;;18.22;75.69;101322.97;5069013;28;20040;-82
2022/07/16 07:48:54;;;;;;;5.57;3.70;;;;;;;18.34;75.54;101320.75;5049894;28;20392;-77
2022/07/16 07:51:20;;;;;;;4.20;3.70;;;;;;;18.46;74.91;101321.19;5063421;28;20138;-76
2022/07/16 07:53:47;;;;;;;5.43;3.47;;;;;;;18.55;74.29;101327.34;5089800;28;20043;-82
2022/07/16 07:56:13;;;;;;;4.97;3.65;;;;;;;18.62;73.89;101330.16;5088385;28;20036;-82
2022/07/16 07:58:39;;;;;;;3.92;3.53;;;;;;;18.65;73.56;101327.13;5089550;28;20093;-82
2022/07/16 08:01:05;;;;;;;4.05;3.70;;;;;;;18.72;73.43;101331.59;5087398;28;20452;-83
2022/07/16 08:03:31;;;;;;;6.10;4.13;;;;;;;18.75;73.21;101324.19;5086712;28;20047;-82
2022/07/16 08:05:57;;;;;;;4.05;3.60;;;;;;;18.79;73.23;101325.53;5090923;28;20024;-82
2022/07/16 08:08:23;;;;;;;4.50;4.10;;;;;;;18.84;73.18;101317.78;5087073;28;20024;-82
2022/07/16 08:10:49;;;;;;;14.63;5.10;;;;;;;18.88;73.03;101321.78;5069675;28;20027;-82
2022/07/16 08:13:15;;;;;;;7.25;4.32;;;;;;;18.92;72.92;101322.25;5088738;28;20032;-82
2022/07/16 08:15:40;;;;;;;4.88;4.00;;;;;;;18.91;72.86;101323.25;5103299;28;20481;-82
2022/07/16 08:18:06;;;;;;;7.45;3.88;;;;;;;18.88;72.88;101327.13;5071541;28;20128;-82
2022/07/16 08:20:32;;;;;;;5.18;3.80;;;;;;;18.91;72.92;101320.56;5083139;28;20044;-82
2022/07/16 08:22:58;;;;;;;5.95;4.35;;;;;;;18.93;73.08;101324.75;5085130;28;20047;-82
2022/07/16 08:28:08;;;;;;;5.38;3.72;;;;;;;19.02;72.80;101313.97;5103125;28;20477;-76
2022/07/16 08:30:33;;;;;;;6.55;3.70;;;;;;;19.09;72.92;101309.59;5082283;28;20040;-82
2022/07/16 08:32:59;;;;;;;9.40;4.85;;;;;;;19.16;72.68;101309.72;5073148;28;20078;-82
2022/07/16 08:35:25;;;;;;;25.83;5.93;;;;;;;19.26;72.49;101310.28;5089501;28;20039;-81
2022/07/16 08:37:51;;;;;;;15.38;5.60;;;;;;;19.33;72.18;101305.84;5094608;28;20032;-82
2022/07/16 08:40:19;;;;;;;23.40;5.25;;;;;;;19.42;71.85;101312.00;5093382;28;20422;-82
2022/07/16 08:42:46;;;;;;;15.98;5.32;;;;;;;19.48;71.77;101307.75;5104899;28;20023;-82
2022/07/16 08:45:13;;;;;;;15.07;4.78;;;;;;;19.56;71.40;101309.50;5091214;28;20107;-82
2022/07/16 08:47:39;;;;;;;4.70;3.70;;;;;;;19.60;71.47;101313.50;5080031;28;20038;-82
2022/07/16 08:50:09;;;;;;;7.47;4.25;;;;;;;19.70;71.41;101315.91;5085042;28;20035;-81
2022/07/16 08:52:38;;;;;;;6.07;3.63;;;;;;;19.75;71.19;101323.41;5089360;28;20028;-82
2022/07/16 08:55:05;;;;;;;8.27;3.35;;;;;;;19.74;70.96;101314.53;5092939;28;20077;-76
2022/07/16 08:57:33;;;;;;;3.85;3.20;;;;;;;19.74;70.81;101305.63;5068013;28;20060;-77
2022/07/16 08:59:58;;;;;;;4.53;3.20;;;;;;;19.75;70.67;101308.13;5070898;28;20089;-81
2022/07/16 09:02:24;;;;;;;6.70;3.70;;;;;;;19.84;70.37;101311.56;5073201;28;20043;-82
2022/07/16 09:04:50;;;;;;;8.18;4.53;;;;;;;19.90;70.51;101313.50;5102585;28;20036;-81
2022/07/16 09:07:18;;;;;;;6.25;3.92;;;;;;;19.96;70.64;101307.41;5090977;28;20024;-82
2022/07/16 09:09:44;;;;;;;4.95;3.80;;;;;;;20.01;70.65;101312.22;5075889;28;20028;-82
2022/07/16 09:12:31;;;;;;;3.80;3.13;;;;;;;20.08;70.42;101315.03;5088556;28;20032;-82
2022/07/16 09:14:57;;;;;;;3.67;3.25;;;;;;;20.16;70.22;101314.91;5065457;28;20381;-81
2022/07/16 09:17:23;;;;;;;5.25;3.45;;;;;;;20.27;70.17;101313.63;5109581;27;20109;-82
2022/07/16 09:19:48;;;;;;;4.47;4.05;;;;;;;20.39;70.45;101316.63;5090804;28;20044;-81
2022/07/16 09:22:15;;;;;;;4.13;3.03;;;;;;;20.42;70.46;101316.25;5088186;28;20052;-81
2022/07/16 09:24:52;;;;;;;7.05;3.10;;;;;;;20.49;69.98;101316.34;5090274;28;20533;-81
2022/07/16 09:27:22;;;;;;;5.78;2.92;;;;;;;20.55;69.69;101307.53;5066774;28;20027;-81
2022/07/16 09:29:54;;;;;;;3.45;3.13;;;;;;;20.60;69.23;101316.84;5092413;28;20066;-81
2022/07/16 09:32:34;;;;;;;4.05;3.15;;;;;;;20.64;68.84;101316.28;5086608;28;20449;-81
2022/07/16 09:35:10;;;;;;;4.60;2.88;;;;;;;20.63;68.75;101313.78;5089467;28;20431;-81
2022/07/16 09:37:52;;;;;;;4.65;3.50;;;;;;;20.62;68.95;101312.13;5075026;28;20411;-81
2022/07/16 09:40:31;;;;;;;3.33;3.03;;;;;;;20.61;68.95;101305.91;5053383;28;20369;-81
2022/07/16 09:42:58;;;;;;;4.53;2.60;;;;;;;20.67;69.13;101304.34;5091071;28;20185;-81
2022/07/16 09:45:24;;;;;;;6.00;3.22;;;;;;;20.73;69.06;101305.41;5083414;28;20051;-81
2022/07/16 09:47:50;;;;;;;7.57;2.90;;;;;;;20.78;69.05;101301.16;5106585;28;20484;-81
2022/07/16 09:50:15;;;;;;;3.50;2.97;;;;;;;20.83;68.68;101300.56;5091503;28;20092;-81
2022/07/16 09:52:41;;;;;;;3.38;2.70;;;;;;;20.81;68.24;101299.94;5085990;28;20427;-81
2022/07/16 09:55:08;;;;;;;3.78;2.78;;;;;;;20.82;68.07;101299.72;5092326;28;20066;-81
2022/07/16 09:57:34;;;;;;;3.55;2.67;;;;;;;20.89;68.13;101299.81;5085481;28;20036;-81
2022/07/16 10:00:00;;;;;;;6.53;3.70;;;;;;;20.94;68.09;101301.94;5108940;28;20031;-81
2022/07/16 10:02:28;;;;;;;5.00;2.92;;;;;;;20.97;67.63;101300.72;5075989;28;20060;-81
2022/07/16 10:04:54;;;;;;;6.07;3.25;;;;;;;21.01;67.41;101299.28;5087369;28;20097;-76
2022/07/16 10:07:19;;;;;;;4.55;2.95;;;;;;;21.04;67.20;101306.97;5087258;28;20021;-76
2022/07/16 10:09:46;;;;;;;3.72;2.55;;;;;;;21.10;66.89;101302.69;5085092;28;20041;-81
2022/07/16 10:12:18;;;;;;;4.65;2.80;;;;;;;21.22;66.73;101306.50;5081403;28;20025;-82
2022/07/16 10:14:52;;;;;;;11.23;2.75;;;;;;;21.28;66.74;101296.81;5091678;28;20443;-81
2022/07/16 10:17:30;;;;;;;4.93;2.90;;;;;;;21.37;66.96;101301.06;5092445;28;20358;-81
2022/07/16 10:20:05;;;;;;;3.53;2.88;;;;;;;21.43;66.78;101302.13;5091715;28;20040;-81
2022/07/16 10:22:40;;;;;;;3.85;2.47;;;;;;;21.54;66.93;101304.28;5089347;28;20033;-81
2022/07/16 10:25:19;;;;;;;4.30;2.50;;;;;;;21.64;66.56;101305.78;5088234;28;20150;-81
2022/07/16 10:27:45;;;;;;;6.05;2.55;;;;;;;21.72;65.86;101305.63;5072957;28;20027;-81
2022/07/16 10:30:13;;;;;;;3.20;2.55;;;;;;;21.81;65.77;101301.78;5084243;28;20028;-81
2022/07/16 10:33:05;;;;;;;2.60;2.10;;;;;;;21.95;65.10;101307.22;5088345;28;20054;-82
2022/07/16 10:35:33;;;;;;;4.57;2.38;;;;;;;22.01;65.40;101303.72;5073760;28;20028;-77
2022/07/16 10:38:22;;;;;;;5.50;2.72;;;;;;;22.02;64.96;101299.19;5086246;28;20024;-77
2022/07/16 10:41:13;;;;;;;3.58;2.65;;;;;;;22.04;64.89;101303.31;5080368;28;20028;-82
2022/07/16 10:43:39;;;;;;;2.72;2.13;;;;;;;22.15;65.09;101299.22;5087204;28;20025;-77
2022/07/16 10:46:08;;;;;;;5.00;2.50;;;;;;;22.19;64.63;101310.44;5087999;28;20020;-76
2022/07/16 10:48:57;;;;;;;2.85;2.40;;;;;;;22.23;64.18;101302.78;5086740;28;20040;-81
2022/07/16 10:51:24;;;;;;;4.00;2.38;;;;;;;22.19;63.97;101291.59;5071328;28;20142;-82
2022/07/16 10:53:57;;;;;;;3.90;2.45;;;;;;;22.14;63.92;101291.34;5086882;28;20032;-82
2022/07/16 10:56:43;;;;;;;6.95;2.70;;;;;;;22.08;63.07;101290.31;5064679;28;20040;-81
2022/07/16 10:59:12;;;;;;;3.10;2.30;;;;;;;22.13;63.49;101295.09;5087262;28;20409;-82
2022/07/16 11:01:40;;;;;;;4.07;2.65;;;;;;;22.11;63.92;101284.50;5070551;28;20373;-82
2022/07/16 11:04:08;;;;;;;3.47;2.25;;;;;;;22.16;64.48;101283.91;5065435;28;20107;-82
2022/07/16 11:06:34;;;;;;;3.83;2.25;;;;;;;22.31;64.34;101281.06;5089666;28;20024;-81
2022/07/16 11:09:03;;;;;;;4.13;2.22;;;;;;;22.42;64.54;101276.97;5080684;28;20032;-82
2022/07/16 11:11:32;;;;;;;3.00;2.10;;;;;;;22.52;63.46;101293.53;5088212;28;20032;-82
2022/07/16 11:13:59;;;;;;;3.58;2.63;;;;;;;22.64;63.42;101283.03;5070301;28;20032;-82
2022/07/16 11:16:25;;;;;;;5.05;2.50;;;;;;;22.60;63.82;101287.16;5090839;28;20060;-81
2022/07/16 11:18:51;;;;;;;3.22;2.33;;;;;;;22.69;64.20;101293.22;5089097;28;20030;-81
2022/07/16 11:21:17;;;;;;;4.30;2.70;;;;;;;22.87;63.92;101289.88;5090217;28;20031;-82
2022/07/16 11:23:53;;;;;;;3.60;2.10;;;;;;;23.01;63.40;101287.22;5086054;28;20112;-81
2022/07/16 11:26:20;;;;;;;3.55;2.20;;;;;;;23.06;62.99;101287.44;5071367;28;20442;-81
2022/07/16 11:28:58;;;;;;;4.93;2.47;;;;;;;23.13;62.73;101293.66;5105621;28;20626;-81